createdAt,value
2022-10-14T00:00:02.266Z,7.68
2022-10-14T00:01:42.263Z,7.80
2022-10-14T00:03:17.072Z,6.18
2022-10-14T00:04:39.314Z,6.53
2022-10-14T00:06:37.655Z,7.75
2022-10-14T00:07:57.473Z,5.97
2022-10-14T00:09:21.225Z,6.72
2022-10-14T00:10:47.561Z,6.75
2022-10-14T00:12:02.891Z,7.55
2022-10-14T00:13:32.729Z,6.60
2022-10-14T00:16:33.074Z,5.40
2022-10-14T00:18:09.322Z,5.07
2022-10-14T00:21:31.167Z,5.72
2022-10-14T00:22:54.443Z,5.68
2022-10-14T00:24:04.873Z,5.63
2022-10-14T00:25:39.337Z,5.18
2022-10-14T00:26:49.180Z,4.95
2022-10-14T00:28:03.907Z,5.95
2022-10-14T00:29:18.993Z,4.60
2022-10-14T00:30:41.089Z,5.15
2022-10-14T00:32:00.566Z,4.60
2022-10-14T00:33:11.751Z,3.72
2022-10-14T00:34:53.611Z,4.50
2022-10-14T00:36:07.772Z,4.07
2022-10-14T00:37:20.598Z,4.20
2022-10-14T00:38:28.074Z,3.80
2022-10-14T00:39:39.026Z,3.85
2022-10-14T00:40:43.477Z,3.50
2022-10-14T00:41:57.821Z,3.72
2022-10-14T00:43:14.141Z,3.70
2022-10-14T00:45:12.417Z,3.75
2022-10-14T00:46:17.834Z,3.97
2022-10-14T00:47:29.355Z,3.83
2022-10-14T00:48:41.490Z,4.10
2022-10-14T00:49:57.122Z,3.70
2022-10-14T00:51:07.750Z,3.92
2022-10-14T00:52:33.035Z,3.70
2022-10-14T00:53:42.810Z,4.22
2022-10-14T00:54:56.368Z,3.67
2022-10-14T00:56:12.372Z,3.95
2022-10-14T00:57:21.524Z,3.65
2022-10-14T00:58:38.476Z,3.30
2022-10-14T01:00:20.311Z,3.53
2022-10-14T01:01:25.937Z,4.10
2022-10-14T01:02:29.135Z,4.60
2022-10-14T01:03:33.507Z,3.50
2022-10-14T01:04:39.394Z,3.95
2022-10-14T01:05:50.252Z,3.25
2022-10-14T01:09:36.147Z,4.07
2022-10-14T01:13:27.905Z,3.45
2022-10-14T01:15:01.068Z,3.20
2022-10-14T01:16:24.886Z,2.92
2022-10-14T01:18:10.504Z,3.20
2022-10-14T01:19:58.313Z,4.07
2022-10-14T01:21:33.762Z,3.97
2022-10-14T01:24:00.933Z,4.00
2022-10-14T01:25:34.006Z,3.55
2022-10-14T01:27:38.969Z,4.05
2022-10-14T01:31:03.698Z,3.65
2022-10-14T01:34:18.773Z,3.53
2022-10-14T01:35:39.037Z,3.10
2022-10-14T01:37:07.080Z,3.10
2022-10-14T01:38:22.130Z,3.38
2022-10-14T01:39:42.011Z,3.00
2022-10-14T01:41:06.121Z,3.28
2022-10-14T01:42:52.642Z,3.60
2022-10-14T01:44:28.244Z,3.33
2022-10-14T01:46:10.717Z,3.00
2022-10-14T01:47:33.733Z,3.00
2022-10-14T01:48:52.903Z,2.80
2022-10-14T01:51:47.603Z,3.10
2022-10-14T01:53:03.418Z,2.80
2022-10-14T01:54:19.335Z,3.00
2022-10-14T01:55:44.570Z,2.70
2022-10-14T01:57:22.353Z,2.65
2022-10-14T01:58:41.931Z,3.67
2022-10-14T02:00:14.508Z,3.20
2022-10-14T02:01:21.948Z,2.83
2022-10-14T02:02:29.723Z,2.70
2022-10-14T02:03:52.607Z,3.03
2022-10-14T02:05:00.961Z,2.55
2022-10-14T02:06:20.774Z,2.70
2022-10-14T02:07:42.526Z,3.05
2022-10-14T02:09:18.709Z,1.90
2022-10-14T02:10:47.876Z,2.55
2022-10-14T02:12:26.608Z,2.45
2022-10-14T02:14:13.355Z,2.47
2022-10-14T02:15:28.283Z,2.10
2022-10-14T02:16:45.296Z,2.42
2022-10-14T02:18:04.587Z,2.25
2022-10-14T02:19:31.205Z,2.35
2022-10-14T02:20:59.187Z,2.05
2022-10-14T02:22:25.946Z,2.30
2022-10-14T02:23:52.572Z,1.92
2022-10-14T02:25:08.797Z,2.55
2022-10-14T02:26:24.001Z,2.17
2022-10-14T02:27:43.898Z,2.20
2022-10-14T02:28:54.830Z,2.88
2022-10-14T02:30:15.300Z,2.78
2022-10-14T02:31:25.527Z,2.50
2022-10-14T02:32:37.411Z,2.25
2022-10-14T02:33:52.860Z,2.78
2022-10-14T02:35:02.962Z,2.00
2022-10-14T02:36:15.070Z,2.47
2022-10-14T02:37:22.221Z,2.50
2022-10-14T02:38:43.636Z,2.35
2022-10-14T02:39:56.023Z,2.53
2022-10-14T02:41:25.395Z,2.72
2022-10-14T02:45:57.784Z,2.20
2022-10-14T03:03:50.997Z,2.00
2022-10-14T03:05:03.671Z,2.38
2022-10-14T03:06:21.958Z,2.63
2022-10-14T03:07:37.326Z,2.45
2022-10-14T03:09:10.133Z,1.67
2022-10-14T03:10:23.201Z,2.72
2022-10-14T03:11:39.815Z,2.17
2022-10-14T03:13:04.176Z,2.40
2022-10-14T03:14:39.610Z,2.30
2022-10-14T03:15:51.455Z,1.88
2022-10-14T03:17:04.151Z,2.30
2022-10-14T03:18:22.360Z,2.05
2022-10-14T03:19:44.027Z,1.83
2022-10-14T03:20:55.746Z,2.30
2022-10-14T03:22:17.458Z,2.75
2022-10-14T03:23:20.763Z,2.72
2022-10-14T03:24:37.727Z,1.70
2022-10-14T03:26:13.947Z,2.25
2022-10-14T03:27:28.874Z,2.50
2022-10-14T03:28:48.347Z,3.00
2022-10-14T03:30:25.345Z,2.25
2022-10-14T03:31:50.739Z,2.38
2022-10-14T03:33:48.945Z,2.47
2022-10-14T03:35:19.606Z,2.30
2022-10-14T03:36:39.009Z,2.50
2022-10-14T03:37:55.188Z,2.40
2022-10-14T03:39:17.250Z,2.60
2022-10-14T03:40:28.762Z,2.00
2022-10-14T03:41:52.893Z,2.33
2022-10-14T03:43:11.537Z,2.58
2022-10-14T03:44:37.768Z,2.20
2022-10-14T03:46:02.139Z,2.60
2022-10-14T03:47:18.630Z,3.30
2022-10-14T03:48:35.721Z,2.30
2022-10-14T03:49:48.436Z,1.98
2022-10-14T03:51:34.544Z,2.47
2022-10-14T03:53:11.389Z,2.10
2022-10-14T03:54:23.523Z,2.72
2022-10-14T03:55:35.622Z,1.98
2022-10-14T03:56:52.177Z,2.15
2022-10-14T03:58:04.959Z,2.97
2022-10-14T03:59:17.478Z,2.47
2022-10-14T04:00:34.963Z,2.85
2022-10-14T04:02:23.490Z,3.03
2022-10-14T04:03:36.005Z,2.65
2022-10-14T04:05:01.064Z,2.40
2022-10-14T04:06:21.538Z,3.13
2022-10-14T04:07:55.761Z,2.75
2022-10-14T04:09:03.202Z,2.90
2022-10-14T04:10:21.419Z,2.83
2022-10-14T04:11:37.212Z,2.45
2022-10-14T04:12:51.061Z,2.80
2022-10-14T04:14:10.995Z,2.67
2022-10-14T04:15:41.797Z,2.92
2022-10-14T04:17:20.876Z,3.30
2022-10-14T04:18:33.968Z,3.10
2022-10-14T04:19:58.881Z,2.70
2022-10-14T04:21:22.527Z,2.20
2022-10-14T04:22:39.683Z,3.03
2022-10-14T04:24:08.082Z,2.55
2022-10-14T04:25:41.407Z,2.72
2022-10-14T04:26:51.794Z,2.55
2022-10-14T04:28:15.498Z,3.55
2022-10-14T04:29:30.674Z,2.47
2022-10-14T04:30:50.220Z,2.42
2022-10-14T04:32:17.567Z,2.58
2022-10-14T04:33:25.951Z,2.88
2022-10-14T04:34:56.280Z,2.53
2022-10-14T04:36:20.860Z,2.67
2022-10-14T04:37:54.505Z,2.50
2022-10-14T04:39:38.297Z,2.72
2022-10-14T04:41:00.610Z,2.80
2022-10-14T04:42:30.457Z,2.70
2022-10-14T04:43:58.636Z,2.45
2022-10-14T04:45:35.002Z,3.00
2022-10-14T04:46:46.970Z,2.65
2022-10-14T04:48:15.808Z,2.28
2022-10-14T04:49:35.219Z,2.85
2022-10-14T04:51:10.004Z,2.50
2022-10-14T04:52:35.466Z,2.30
2022-10-14T04:53:45.941Z,2.20
2022-10-14T04:55:07.366Z,2.78
2022-10-14T04:56:13.347Z,2.63
2022-10-14T04:57:26.178Z,2.40
2022-10-14T04:58:28.170Z,2.45
2022-10-14T04:59:31.338Z,2.63
2022-10-14T05:01:01.803Z,2.78
2022-10-14T05:02:11.672Z,2.70
2022-10-14T05:03:43.220Z,2.70
2022-10-14T05:05:02.583Z,3.30
2022-10-14T05:06:33.545Z,2.97
2022-10-14T05:08:02.901Z,2.80
2022-10-14T05:09:23.123Z,2.85
2022-10-14T05:10:39.997Z,2.15
2022-10-14T05:11:54.019Z,2.92
2022-10-14T05:13:11.674Z,2.65
2022-10-14T05:14:39.169Z,2.72
2022-10-14T05:16:14.736Z,2.67
2022-10-14T05:17:23.693Z,2.75
2022-10-14T05:20:17.873Z,2.60
2022-10-14T05:21:32.557Z,2.42
2022-10-14T05:23:12.525Z,2.95
2022-10-14T05:24:23.704Z,2.80
2022-10-14T05:25:44.483Z,2.45
2022-10-14T05:27:03.604Z,2.28
2022-10-14T05:28:17.847Z,3.50
2022-10-14T05:29:33.782Z,3.45
2022-10-14T05:30:55.522Z,2.65
2022-10-14T05:32:08.666Z,3.15
2022-10-14T05:33:21.871Z,2.50
2022-10-14T05:34:43.096Z,2.88
2022-10-14T05:36:02.712Z,2.65
2022-10-14T05:37:24.280Z,2.53
2022-10-14T05:38:43.284Z,2.35
2022-10-14T05:40:37.872Z,2.75
2022-10-14T05:41:31.061Z,2.63
2022-10-14T05:43:09.355Z,2.42
2022-10-14T05:44:32.424Z,3.08
2022-10-14T05:45:38.744Z,2.92
2022-10-14T05:46:42.309Z,2.95
2022-10-14T05:47:44.637Z,2.55
2022-10-14T05:48:52.393Z,2.78
2022-10-14T05:49:55.081Z,3.15
2022-10-14T05:51:01.465Z,3.80
2022-10-14T05:52:04.970Z,4.05
2022-10-14T05:53:09.511Z,3.65
2022-10-14T05:54:16.629Z,4.03
2022-10-14T05:55:20.704Z,3.40
2022-10-14T05:56:23.580Z,3.55
2022-10-14T05:57:26.683Z,4.60
2022-10-14T05:58:30.144Z,4.30
2022-10-14T05:59:34.783Z,3.50
2022-10-14T06:00:36.931Z,3.25
2022-10-14T06:01:44.571Z,2.65
2022-10-14T06:02:46.763Z,3.20
2022-10-14T06:03:53.726Z,3.33
2022-10-14T06:05:15.548Z,3.10
2022-10-14T06:06:17.726Z,2.70
2022-10-14T06:07:20.754Z,2.80
2022-10-14T06:08:23.431Z,2.65
2022-10-14T06:09:26.706Z,2.63
2022-10-14T06:10:28.814Z,3.10
2022-10-14T06:11:37.051Z,2.58
2022-10-14T06:12:41.959Z,3.20
2022-10-14T06:14:02.739Z,2.78
2022-10-14T06:15:05.911Z,3.03
2022-10-14T06:16:11.071Z,3.10
2022-10-14T06:17:13.095Z,2.53
2022-10-14T06:18:16.166Z,3.05
2022-10-14T06:19:18.227Z,2.50
2022-10-14T06:20:21.451Z,3.05
2022-10-14T06:21:23.585Z,2.40
2022-10-14T06:22:26.654Z,2.97
2022-10-14T06:23:29.525Z,3.13
2022-10-14T06:24:32.597Z,2.92
2022-10-14T06:25:40.264Z,2.78
2022-10-14T06:26:48.476Z,3.03
2022-10-14T06:27:55.200Z,2.55
2022-10-14T06:29:01.647Z,2.47
2022-10-14T06:30:15.084Z,2.50
2022-10-14T06:31:17.332Z,2.22
2022-10-14T06:32:20.967Z,2.58
2022-10-14T06:33:24.076Z,2.25
2022-10-14T06:34:29.769Z,2.50
2022-10-14T06:35:33.082Z,2.58
2022-10-14T06:36:37.305Z,2.30
2022-10-14T06:37:39.454Z,2.55
2022-10-14T06:38:42.544Z,2.50
2022-10-14T06:39:46.287Z,2.67
2022-10-14T06:40:51.648Z,2.28
2022-10-14T06:41:53.928Z,3.47
2022-10-14T06:42:59.702Z,3.60
2022-10-14T06:44:03.254Z,2.80
2022-10-14T06:45:11.031Z,3.00
2022-10-14T06:46:25.729Z,2.38
2022-10-14T06:47:30.123Z,2.80
2022-10-14T06:48:35.184Z,2.72
2022-10-14T06:49:42.525Z,3.30
2022-10-14T06:50:44.790Z,3.20
2022-10-14T06:51:47.929Z,2.75
2022-10-14T06:52:50.114Z,2.75
2022-10-14T06:53:53.213Z,3.40
2022-10-14T06:54:55.297Z,3.25
2022-10-14T06:56:00.534Z,2.80
2022-10-14T06:57:02.629Z,2.40
2022-10-14T06:58:05.839Z,2.88
2022-10-14T06:59:12.761Z,2.33
2022-10-14T07:00:15.769Z,2.78
2022-10-14T07:01:19.083Z,2.95
2022-10-14T07:02:21.458Z,3.03
2022-10-14T07:03:24.721Z,2.60
2022-10-14T07:04:27.921Z,2.80
2022-10-14T07:05:30.233Z,2.95
2022-10-14T07:06:33.643Z,3.20
2022-10-14T07:07:35.907Z,2.70
2022-10-14T07:08:39.426Z,2.85
2022-10-14T07:09:42.103Z,3.30
2022-10-14T07:10:54.292Z,3.20
2022-10-14T07:11:56.623Z,3.35
2022-10-14T07:12:59.750Z,2.78
2022-10-14T07:14:01.846Z,2.63
2022-10-14T07:15:18.484Z,2.60
2022-10-14T07:16:21.020Z,2.42
2022-10-14T07:17:24.896Z,2.95
2022-10-14T07:18:28.301Z,2.83
2022-10-14T07:19:30.397Z,2.80
2022-10-14T07:20:34.561Z,3.35
2022-10-14T07:21:36.752Z,3.40
2022-10-14T07:22:39.939Z,3.08
2022-10-14T07:23:42.120Z,3.25
2022-10-14T07:24:45.447Z,3.08
2022-10-14T07:25:48.636Z,2.83
2022-10-14T07:27:10.183Z,2.50
2022-10-14T07:28:17.873Z,2.40
2022-10-14T07:29:21.134Z,2.55
2022-10-14T07:30:25.101Z,2.42
2022-10-14T07:31:30.051Z,2.20
2022-10-14T07:32:34.583Z,2.25
2022-10-14T07:35:25.709Z,2.80
2022-10-14T07:36:28.613Z,2.35
2022-10-14T07:37:31.929Z,3.20
2022-10-14T07:38:34.393Z,3.30
2022-10-14T07:39:37.917Z,2.83
2022-10-14T07:40:41.116Z,2.70
2022-10-14T07:41:49.549Z,2.03
2022-10-14T07:42:52.912Z,1.85
2022-10-14T07:44:01.937Z,2.70
2022-10-14T07:45:25.202Z,2.00
2022-10-14T07:46:40.559Z,2.75
2022-10-14T07:47:49.271Z,2.10
2022-10-14T07:48:56.987Z,2.20
2022-10-14T07:50:00.639Z,2.70
2022-10-14T07:51:13.067Z,2.53
2022-10-14T07:52:17.492Z,2.95
2022-10-14T07:54:00.728Z,2.42
2022-10-14T07:55:09.895Z,2.80
2022-10-14T07:56:12.133Z,2.00
2022-10-14T07:57:16.733Z,2.20
2022-10-14T07:58:21.060Z,2.70
2022-10-14T07:59:27.849Z,2.10
2022-10-14T08:00:38.370Z,2.10
2022-10-14T08:01:47.814Z,1.58
2022-10-14T08:02:50.394Z,2.08
2022-10-14T08:03:54.017Z,1.80
2022-10-14T08:06:20.634Z,1.77
2022-10-14T08:07:27.526Z,1.92
2022-10-14T08:08:30.452Z,1.70
2022-10-14T08:09:36.029Z,1.20
2022-10-14T08:10:39.828Z,1.67
2022-10-14T08:11:44.554Z,1.70
2022-10-14T08:12:47.980Z,1.70
2022-10-14T08:13:51.639Z,1.40
2022-10-14T08:14:57.281Z,1.50
2022-10-14T08:16:00.861Z,1.75
2022-10-14T08:17:04.698Z,1.58
2022-10-14T08:18:09.200Z,1.27
2022-10-14T08:19:14.827Z,1.60
2022-10-14T08:20:17.732Z,1.65
2022-10-14T08:21:22.178Z,1.50
2022-10-14T08:22:24.964Z,1.42
2022-10-14T08:23:30.575Z,1.70
2022-10-14T08:24:32.839Z,1.70
2022-10-14T08:25:38.133Z,1.58
2022-10-14T08:26:49.290Z,1.70
2022-10-14T08:27:54.203Z,2.03
2022-10-14T08:28:57.380Z,1.45
2022-10-14T08:30:00.941Z,1.67
2022-10-14T08:31:03.339Z,2.70
2022-10-14T08:32:08.138Z,1.50
2022-10-14T08:33:10.656Z,1.77
2022-10-14T08:34:16.285Z,1.45
2022-10-14T08:35:18.834Z,1.65
2022-10-14T08:36:23.010Z,1.55
2022-10-14T08:37:31.680Z,1.13
2022-10-14T08:38:36.892Z,1.50
2022-10-14T08:39:40.126Z,1.35
2022-10-14T08:40:57.094Z,1.40
2022-10-14T08:42:21.520Z,1.50
2022-10-14T08:44:05.314Z,1.38
2022-10-14T08:46:27.614Z,1.55
2022-10-14T08:47:57.486Z,1.70
2022-10-14T08:49:05.618Z,1.00
2022-10-14T08:50:23.167Z,1.30
2022-10-14T08:51:27.894Z,1.20
2022-10-14T08:52:37.738Z,1.30
2022-10-14T08:53:46.977Z,1.27
2022-10-14T08:54:57.365Z,1.52
2022-10-14T08:56:01.421Z,1.10
2022-10-14T08:57:06.027Z,2.20
2022-10-14T08:58:15.397Z,1.00
2022-10-14T08:59:20.844Z,1.30
2022-10-14T09:00:24.543Z,1.30
2022-10-14T09:01:30.600Z,1.00
2022-10-14T09:02:45.478Z,1.17
2022-10-14T09:03:55.806Z,1.10
2022-10-14T09:05:02.848Z,1.20
2022-10-14T09:06:11.827Z,1.20
2022-10-14T09:07:19.995Z,1.10
2022-10-14T09:08:30.890Z,1.10
2022-10-14T09:09:41.422Z,1.15
2022-10-14T09:10:44.579Z,1.00
2022-10-14T09:11:52.705Z,1.23
2022-10-14T09:12:59.706Z,0.82
2022-10-14T09:14:07.612Z,1.25
2022-10-14T09:15:19.296Z,1.10
2022-10-14T09:16:25.228Z,1.23
2022-10-14T09:17:35.532Z,1.33
2022-10-14T09:18:43.368Z,1.40
2022-10-14T09:19:50.655Z,0.93
2022-10-14T09:20:56.410Z,1.00
2022-10-14T09:22:00.183Z,1.00
2022-10-14T09:23:19.809Z,0.80
2022-10-14T09:24:25.578Z,1.00
2022-10-14T09:25:33.105Z,1.23
2022-10-14T09:27:22.648Z,1.08
2022-10-14T09:28:49.848Z,0.95
2022-10-14T09:30:00.213Z,1.60
2022-10-14T09:31:19.567Z,1.40
2022-10-14T09:32:38.179Z,1.20
2022-10-14T09:33:53.621Z,1.02
2022-10-14T09:35:18.274Z,1.17
2022-10-14T09:38:17.708Z,1.10
2022-10-14T09:39:30.041Z,1.05
2022-10-14T09:40:49.589Z,1.20
2022-10-14T09:42:12.175Z,1.60
2022-10-14T09:43:32.162Z,0.90
2022-10-14T09:44:46.784Z,0.82
2022-10-14T09:46:01.094Z,0.98
2022-10-14T09:47:29.606Z,1.10
2022-10-14T09:49:00.199Z,1.10
2022-10-14T09:50:15.327Z,1.50
2022-10-14T09:51:39.638Z,1.55
2022-10-14T09:53:11.052Z,1.00
2022-10-14T09:54:57.990Z,0.90
2022-10-14T09:56:42.142Z,0.93
2022-10-14T09:58:38.872Z,0.90
2022-10-14T10:00:31.137Z,1.10
2022-10-14T10:02:11.473Z,0.70
2022-10-14T10:03:36.378Z,1.00
2022-10-14T10:04:47.111Z,1.20
2022-10-14T10:06:01.366Z,1.20
2022-10-14T10:07:06.608Z,1.10
2022-10-14T10:08:19.223Z,0.73
2022-10-14T10:09:21.979Z,0.90
2022-10-14T10:10:25.430Z,0.90
2022-10-14T10:11:31.221Z,0.90
2022-10-14T10:12:35.247Z,1.00
2022-10-14T10:13:44.898Z,0.88
2022-10-14T10:14:58.688Z,0.90
2022-10-14T10:16:04.575Z,1.08
2022-10-14T10:17:19.341Z,1.30
2022-10-14T10:18:24.557Z,0.95
2022-10-14T10:19:32.253Z,1.20
2022-10-14T10:20:36.149Z,1.35
2022-10-14T10:21:38.530Z,1.17
2022-10-14T10:22:41.912Z,1.30
2022-10-14T10:23:54.421Z,1.13
2022-10-14T10:25:20.243Z,1.00
2022-10-14T10:26:27.242Z,0.80
2022-10-14T10:27:35.546Z,0.85
2022-10-14T10:28:46.488Z,1.00
2022-10-14T10:29:48.820Z,0.80
2022-10-14T10:31:04.738Z,0.90
2022-10-14T10:32:15.443Z,0.90
2022-10-14T10:33:24.443Z,0.80
2022-10-14T10:34:40.560Z,0.90
2022-10-14T10:36:02.307Z,0.70
2022-10-14T10:37:13.032Z,0.60
2022-10-14T10:38:22.125Z,0.90
2022-10-14T10:39:38.154Z,0.82
2022-10-14T10:40:47.400Z,0.90
2022-10-14T10:42:02.570Z,1.17
2022-10-14T10:43:56.592Z,0.98
2022-10-14T10:45:36.828Z,1.00
2022-10-14T10:47:02.564Z,0.90
2022-10-14T10:48:15.908Z,0.85
2022-10-14T10:49:32.367Z,0.80
2022-10-14T10:50:48.699Z,0.80
2022-10-14T10:51:55.664Z,1.10
2022-10-14T10:53:47.367Z,0.70
2022-10-14T10:55:02.851Z,0.98
2022-10-14T10:56:15.146Z,1.15
2022-10-14T10:57:32.255Z,1.00
2022-10-14T10:58:57.145Z,1.08
2022-10-14T11:00:07.837Z,1.00
2022-10-14T11:01:26.138Z,1.30
2022-10-14T11:03:09.327Z,1.00
2022-10-14T11:04:27.188Z,0.80
2022-10-14T11:05:44.775Z,1.30
2022-10-14T11:07:12.362Z,1.20
2022-10-14T11:08:54.119Z,1.08
2022-10-14T11:10:29.052Z,1.10
2022-10-14T11:11:53.263Z,1.05
2022-10-14T11:13:00.942Z,0.90
2022-10-14T11:14:41.708Z,1.10
2022-10-14T11:15:51.896Z,0.90
2022-10-14T11:17:02.415Z,1.30
2022-10-14T11:18:14.566Z,0.98
2022-10-14T11:19:24.478Z,3.13
2022-10-14T11:21:18.436Z,2.60
2022-10-14T11:23:03.180Z,1.05
2022-10-14T11:24:28.101Z,1.17
2022-10-14T11:25:44.546Z,1.20
2022-10-14T11:26:58.754Z,1.00
2022-10-14T11:28:10.334Z,0.90
2022-10-14T11:29:35.530Z,1.00
2022-10-14T11:30:45.883Z,0.90
2022-10-14T11:31:56.521Z,0.93
2022-10-14T11:33:21.341Z,1.10
2022-10-14T11:35:01.277Z,1.02
2022-10-14T11:36:44.689Z,1.23
2022-10-14T11:38:54.338Z,1.48
2022-10-14T11:40:24.375Z,1.05
2022-10-14T11:42:27.126Z,1.02
2022-10-14T11:44:03.797Z,1.10
2022-10-14T11:46:21.823Z,1.00
2022-10-14T11:47:28.229Z,0.80
2022-10-14T11:48:36.298Z,1.00
2022-10-14T11:49:47.187Z,1.05
2022-10-14T11:50:53.430Z,0.90
2022-10-14T11:52:03.574Z,1.10
2022-10-14T11:53:13.273Z,1.08
2022-10-14T11:54:24.133Z,1.30
2022-10-14T11:55:31.436Z,1.15
2022-10-14T11:56:43.445Z,1.23
2022-10-14T11:57:50.274Z,1.40
2022-10-14T11:59:14.169Z,1.15
2022-10-14T12:01:00.118Z,0.93
2022-10-14T12:02:22.014Z,1.00
2022-10-14T12:03:44.321Z,1.30
2022-10-14T12:04:53.969Z,1.20
2022-10-14T12:06:10.807Z,1.10
2022-10-14T12:07:18.050Z,1.50
2022-10-14T12:08:33.123Z,2.00
2022-10-14T12:09:42.420Z,1.10
2022-10-14T12:10:49.126Z,1.15
2022-10-14T12:11:57.741Z,1.20
2022-10-14T12:13:01.646Z,0.80
2022-10-14T12:14:13.153Z,0.80
2022-10-14T12:15:20.443Z,1.13
2022-10-14T12:16:25.537Z,1.08
2022-10-14T12:17:32.693Z,1.05
2022-10-14T12:19:39.191Z,1.20
2022-10-14T12:20:48.323Z,1.20
2022-10-14T12:21:57.813Z,1.33
2022-10-14T12:23:03.412Z,1.65
2022-10-14T12:24:09.212Z,1.08
2022-10-14T12:25:18.620Z,1.13
2022-10-14T12:26:53.631Z,0.80
2022-10-14T12:27:56.833Z,1.10
2022-10-14T12:29:03.619Z,0.85
2022-10-14T12:30:33.849Z,0.93
2022-10-14T12:31:39.307Z,1.27
2022-10-14T12:33:01.721Z,1.23
2022-10-14T12:34:37.448Z,1.10
2022-10-14T12:35:50.204Z,1.40
2022-10-14T12:36:53.720Z,1.13
2022-10-14T12:38:04.930Z,1.08
2022-10-14T12:39:33.989Z,1.23
2022-10-14T12:40:37.083Z,1.00
2022-10-14T12:41:40.564Z,0.80
2022-10-14T12:42:58.786Z,1.08
2022-10-14T12:44:03.908Z,0.90
2022-10-14T12:45:16.562Z,1.10
2022-10-14T12:46:19.976Z,1.33
2022-10-14T12:47:28.940Z,0.80
2022-10-14T12:48:35.000Z,0.90
2022-10-14T12:49:37.672Z,0.90
2022-10-14T12:50:42.380Z,0.90
2022-10-14T12:51:54.354Z,1.10
2022-10-14T12:53:00.819Z,1.00
2022-10-14T12:54:08.698Z,1.00
2022-10-14T12:55:17.607Z,0.90
2022-10-14T12:56:32.839Z,0.90
2022-10-14T12:57:41.489Z,1.15
2022-10-14T12:58:57.950Z,1.10
2022-10-14T13:00:29.022Z,1.00
2022-10-14T13:01:35.361Z,1.10
2022-10-14T13:02:45.165Z,0.82
2022-10-14T13:03:55.561Z,0.93
2022-10-14T13:05:00.542Z,1.10
2022-10-14T13:06:28.681Z,0.95
2022-10-14T13:07:44.922Z,1.20
2022-10-14T13:09:22.081Z,1.10
2022-10-14T13:10:48.423Z,0.90
2022-10-14T13:12:26.645Z,1.00
2022-10-14T13:13:50.395Z,1.02
2022-10-14T13:15:03.965Z,1.00
2022-10-14T13:16:52.184Z,1.30
2022-10-14T13:17:54.390Z,0.90
2022-10-14T13:18:58.323Z,1.10
2022-10-14T13:20:00.861Z,1.20
2022-10-14T13:21:09.434Z,1.00
2022-10-14T13:22:40.811Z,0.90
2022-10-14T13:23:47.542Z,1.38
2022-10-14T13:24:49.854Z,1.30
2022-10-14T13:25:54.287Z,1.00
2022-10-14T13:27:09.050Z,1.13
2022-10-14T13:28:22.515Z,0.90
2022-10-14T13:29:32.424Z,1.02
2022-10-14T13:30:47.026Z,1.30
2022-10-14T13:31:59.367Z,0.90
2022-10-14T13:33:12.360Z,0.90
2022-10-14T13:34:23.604Z,1.13
2022-10-14T13:35:32.719Z,1.10
2022-10-14T13:36:40.890Z,1.05
2022-10-14T13:37:47.482Z,1.20
2022-10-14T13:38:56.186Z,1.38
2022-10-14T13:40:05.451Z,1.40
2022-10-14T13:41:34.945Z,1.00
2022-10-14T13:42:39.736Z,1.10
2022-10-14T13:43:44.666Z,1.20
2022-10-14T13:45:54.302Z,0.90
2022-10-14T13:47:01.380Z,1.20
2022-10-14T13:48:03.605Z,1.20
2022-10-14T13:49:13.740Z,1.25
2022-10-14T13:50:19.805Z,1.00
2022-10-14T13:51:37.861Z,1.30
2022-10-14T13:52:41.611Z,1.10
2022-10-14T13:53:51.174Z,1.60
2022-10-14T13:55:13.132Z,1.10
2022-10-14T13:56:24.206Z,1.15
2022-10-14T13:58:11.568Z,1.75
2022-10-14T13:58:53.776Z,1.20
2022-10-14T14:00:39.758Z,1.02
2022-10-14T14:01:22.276Z,1.10
2022-10-14T14:02:28.030Z,1.27
2022-10-14T14:03:35.239Z,1.08
2022-10-14T14:04:40.053Z,1.45
2022-10-14T14:05:42.697Z,1.30
2022-10-14T14:07:06.987Z,1.58
2022-10-14T14:08:38.830Z,1.40
2022-10-14T14:09:41.566Z,1.10
2022-10-14T14:11:15.164Z,1.38
2022-10-14T14:12:15.359Z,1.58
2022-10-14T14:13:17.587Z,1.42
2022-10-14T14:14:23.663Z,1.30
2022-10-14T14:15:31.085Z,1.48
2022-10-14T14:16:37.316Z,1.70
2022-10-14T14:17:43.878Z,2.00
2022-10-14T14:19:04.051Z,1.98
2022-10-14T14:20:12.327Z,1.95
2022-10-14T14:21:14.461Z,1.50
2022-10-14T14:22:19.788Z,1.42
2022-10-14T14:23:22.489Z,2.00
2022-10-14T14:24:29.408Z,1.50
2022-10-14T14:25:36.091Z,1.50
2022-10-14T14:26:46.278Z,1.75
2022-10-14T14:27:53.260Z,1.80
2022-10-14T14:28:56.761Z,2.35
2022-10-14T14:29:58.958Z,1.33
2022-10-14T14:31:02.698Z,1.20
2022-10-14T14:32:07.178Z,1.45
2022-10-14T14:33:16.826Z,1.27
2022-10-14T14:34:22.124Z,1.60
2022-10-14T14:35:25.412Z,1.50
2022-10-14T14:36:50.013Z,2.30
2022-10-14T14:37:56.222Z,1.95
2022-10-14T14:39:01.427Z,2.60
2022-10-14T14:40:07.395Z,3.50
2022-10-14T14:41:18.434Z,3.38
2022-10-14T14:42:21.627Z,3.00
2022-10-14T14:43:24.116Z,2.75
2022-10-14T14:44:30.388Z,1.73
2022-10-14T14:45:41.826Z,1.95
2022-10-14T14:46:45.300Z,2.33
2022-10-14T14:47:50.310Z,2.22
2022-10-14T14:48:55.977Z,2.25
2022-10-14T14:50:18.246Z,2.58
2022-10-14T14:51:23.641Z,1.83
2022-10-14T14:52:27.752Z,2.45
2022-10-14T14:53:31.109Z,2.05
2022-10-14T14:54:33.617Z,2.10
2022-10-14T14:55:45.130Z,1.90
2022-10-14T14:56:50.185Z,1.70
2022-10-14T14:57:58.189Z,2.47
2022-10-14T14:59:08.259Z,2.35
2022-10-14T15:00:19.331Z,2.25
2022-10-14T15:01:24.351Z,1.50
2022-10-14T15:02:33.037Z,1.80
2022-10-14T15:04:13.041Z,1.80
2022-10-14T15:05:20.937Z,1.92
2022-10-14T15:06:24.641Z,2.10
2022-10-14T15:07:27.161Z,1.65
2022-10-14T15:08:32.499Z,2.10
2022-10-14T15:09:39.464Z,2.63
2022-10-14T15:10:48.305Z,2.13
2022-10-14T15:11:57.819Z,2.65
2022-10-14T15:13:21.014Z,1.92
2022-10-14T15:14:33.143Z,2.00
2022-10-14T15:15:39.711Z,1.65
2022-10-14T15:16:42.830Z,1.55
2022-10-14T15:17:46.589Z,1.80
2022-10-14T15:18:49.731Z,2.10
2022-10-14T15:19:52.015Z,1.85
2022-10-14T15:21:14.538Z,1.80
2022-10-14T15:22:29.574Z,1.75
2022-10-14T15:23:41.435Z,2.10
2022-10-14T15:25:08.374Z,1.90
2022-10-14T15:26:25.596Z,1.85
2022-10-14T15:27:42.820Z,2.30
2022-10-14T15:28:47.582Z,2.00
2022-10-14T15:30:34.849Z,1.90
2022-10-14T15:31:40.121Z,1.50
2022-10-14T15:32:43.353Z,2.60
2022-10-14T15:33:48.578Z,2.60
2022-10-14T15:34:56.807Z,2.35
2022-10-14T15:36:01.785Z,2.50
2022-10-14T15:37:05.410Z,2.80
2022-10-14T15:38:16.290Z,1.98
2022-10-14T15:39:18.958Z,2.05
2022-10-14T15:40:24.406Z,2.30
2022-10-14T15:41:26.506Z,2.05
2022-10-14T15:42:29.899Z,2.75
2022-10-14T15:43:34.650Z,2.30
2022-10-14T15:44:36.674Z,2.20
2022-10-14T15:45:39.878Z,2.30
2022-10-14T15:47:02.895Z,2.53
2022-10-14T15:48:07.506Z,2.10
2022-10-14T15:49:16.769Z,2.10
2022-10-14T15:50:22.448Z,2.25
2022-10-14T15:51:30.406Z,2.00
2022-10-14T15:52:34.981Z,2.10
2022-10-14T15:53:37.176Z,1.98
2022-10-14T15:54:40.216Z,2.25
2022-10-14T15:55:44.153Z,2.25
2022-10-14T15:56:48.327Z,2.13
2022-10-14T15:57:52.343Z,2.35
2022-10-14T15:58:54.415Z,2.50
2022-10-14T15:59:57.594Z,2.13
2022-10-14T16:01:01.521Z,1.92
2022-10-14T16:02:06.121Z,2.30
2022-10-14T16:03:11.889Z,2.13
2022-10-14T16:04:19.227Z,2.85
2022-10-14T16:05:22.797Z,3.00
2022-10-14T16:06:25.290Z,2.20
2022-10-14T16:07:28.510Z,2.28
2022-10-14T16:08:34.104Z,2.60
2022-10-14T16:09:37.883Z,3.05
2022-10-14T16:10:43.967Z,2.88
2022-10-14T16:11:46.061Z,2.75
2022-10-14T16:12:49.810Z,2.53
2022-10-14T16:13:51.941Z,2.67
2022-10-14T16:14:55.071Z,2.67
2022-10-14T16:16:00.238Z,2.47
2022-10-14T16:17:03.912Z,2.38
2022-10-14T16:18:07.252Z,2.50
2022-10-14T16:19:09.337Z,2.55
2022-10-14T16:20:13.071Z,2.50
2022-10-14T16:21:16.600Z,2.72
2022-10-14T16:22:19.847Z,2.58
2022-10-14T16:23:28.388Z,3.38
2022-10-14T16:24:36.076Z,2.95
2022-10-14T16:25:45.042Z,2.70
2022-10-14T16:26:49.801Z,3.00
2022-10-14T16:27:52.911Z,2.40
2022-10-14T16:28:56.346Z,2.60
2022-10-14T16:29:59.600Z,3.00
2022-10-14T16:31:03.581Z,2.50
2022-10-14T16:32:05.745Z,3.17
2022-10-14T16:33:09.018Z,3.10
2022-10-14T16:34:11.217Z,2.55
2022-10-14T16:35:14.433Z,2.65
2022-10-14T16:36:17.959Z,2.60
2022-10-14T16:37:21.344Z,2.40
2022-10-14T16:38:24.278Z,3.38
2022-10-14T16:39:27.469Z,2.60
2022-10-14T16:40:35.821Z,2.67
2022-10-14T16:41:41.867Z,2.75
2022-10-14T16:42:44.050Z,2.63
2022-10-14T16:43:48.537Z,2.63
2022-10-14T16:44:52.855Z,3.10
2022-10-14T16:45:59.829Z,3.38
2022-10-14T16:47:17.026Z,2.95
2022-10-14T16:48:20.700Z,2.97
2022-10-14T16:49:26.283Z,2.60
2022-10-14T16:50:29.466Z,2.35
2022-10-14T16:51:31.616Z,2.28
2022-10-14T16:52:55.212Z,2.15
2022-10-14T16:53:58.156Z,2.50
2022-10-14T16:55:03.658Z,2.55
2022-10-14T16:56:29.897Z,2.38
2022-10-14T16:57:32.914Z,3.67
2022-10-14T16:58:34.964Z,2.90
2022-10-14T16:59:38.059Z,3.30
2022-10-14T17:00:40.124Z,3.28
2022-10-14T17:01:45.986Z,3.72
2022-10-14T17:02:52.510Z,3.17
2022-10-14T17:03:55.509Z,3.63
2022-10-14T17:04:58.764Z,3.22